createdAt,value
2019-03-04T00:01:55.119Z,61.20
2019-03-04T00:04:23.772Z,61.30
2019-03-04T00:06:52.457Z,61.70
2019-03-04T00:09:21.123Z,61.70
2019-03-04T00:11:49.815Z,61.50
2019-03-04T00:14:18.465Z,61.80
2019-03-04T00:16:47.115Z,62.20
2019-03-04T00:19:15.730Z,62.90
2019-03-04T00:21:44.397Z,62.50
2019-03-04T00:24:13.044Z,62.40
2019-03-04T00:26:41.700Z,63.10
2019-03-04T00:29:10.347Z,63.60
2019-03-04T00:31:39.036Z,64.10
2019-03-04T00:34:07.688Z,63.80
2019-03-04T00:36:36.385Z,63.70
2019-03-04T00:39:07.542Z,63.80
2019-03-04T00:41:36.191Z,64.00
2019-03-04T00:44:04.889Z,64.00
2019-03-04T00:46:33.538Z,64.30
2019-03-04T00:49:02.237Z,64.50
2019-03-04T00:51:30.872Z,65.40
2019-03-04T00:53:59.588Z,65.00
2019-03-04T00:56:28.242Z,65.80
2019-03-04T00:58:56.874Z,64.40
2019-03-04T01:01:25.571Z,64.60
2019-03-04T01:03:54.257Z,65.60
2019-03-04T01:06:22.856Z,65.50
2019-03-04T01:08:51.417Z,65.20
2019-03-04T01:11:20.075Z,65.70
2019-03-04T01:13:48.742Z,66.20
2019-03-04T01:16:17.382Z,66.00
2019-03-04T01:18:45.975Z,66.30
2019-03-04T01:21:14.613Z,66.60
2019-03-04T01:23:43.269Z,66.90
2019-03-04T01:26:11.875Z,66.90
2019-03-04T01:28:40.527Z,67.70
2019-03-04T01:31:09.238Z,68.60
2019-03-04T01:33:37.879Z,69.30
2019-03-04T01:36:06.516Z,69.30
2019-03-04T01:38:35.790Z,69.10
2019-03-04T01:41:04.426Z,69.20
2019-03-04T01:43:33.034Z,69.80
2019-03-04T01:46:01.694Z,69.30
2019-03-04T01:48:30.374Z,69.40
2019-03-04T01:50:59.056Z,69.50
2019-03-04T01:53:27.705Z,69.60
2019-03-04T01:55:56.384Z,69.70
2019-03-04T01:58:25.042Z,69.20
2019-03-04T02:00:53.735Z,69.40
2019-03-04T02:03:22.404Z,69.60
2019-03-04T02:05:51.055Z,69.80
2019-03-04T02:08:19.801Z,69.90
2019-03-04T02:10:48.428Z,70.20
2019-03-04T02:13:17.059Z,70.60
2019-03-04T02:15:45.723Z,71.50
2019-03-04T02:18:14.371Z,71.30
2019-03-04T02:20:43.050Z,71.30
2019-03-04T02:23:11.708Z,71.50
2019-03-04T02:25:49.316Z,71.50
2019-03-04T02:28:17.977Z,71.70
2019-03-04T02:30:46.676Z,72.30
2019-03-04T02:33:15.286Z,72.10
2019-03-04T02:35:43.841Z,72.00
2019-03-04T02:38:12.534Z,71.80
2019-03-04T02:40:41.177Z,72.20
2019-03-04T02:43:09.889Z,72.70
2019-03-04T02:45:38.568Z,73.00
2019-03-04T02:48:07.144Z,73.00
2019-03-04T02:50:35.751Z,73.00
2019-03-04T02:53:04.305Z,72.80
2019-03-04T02:55:33.004Z,73.10
2019-03-04T02:58:01.591Z,72.50
2019-03-04T03:00:30.254Z,72.30
2019-03-04T03:02:58.924Z,72.50
2019-03-04T03:05:27.560Z,72.60
2019-03-04T03:07:56.177Z,72.40
2019-03-04T03:10:24.868Z,72.50
2019-03-04T03:12:53.530Z,71.90
2019-03-04T03:15:22.508Z,72.00
2019-03-04T03:17:51.154Z,72.10
2019-03-04T03:20:19.833Z,72.00
2019-03-04T03:22:48.531Z,71.90
2019-03-04T03:25:17.187Z,72.20
2019-03-04T03:27:45.854Z,72.90
2019-03-04T03:30:24.754Z,73.10
2019-03-04T03:32:53.418Z,73.50
2019-03-04T03:35:22.062Z,73.80
2019-03-04T03:37:50.828Z,74.30
2019-03-04T03:40:22.266Z,74.60
2019-03-04T03:42:50.982Z,74.90
2019-03-04T03:45:19.634Z,74.70
2019-03-04T03:47:48.303Z,75.00
2019-03-04T03:50:17.736Z,74.80
2019-03-04T03:52:46.883Z,74.90
2019-03-04T03:55:16.541Z,74.90
2019-03-04T03:57:45.288Z,74.70
2019-03-04T04:00:26.609Z,75.70
2019-03-04T04:02:55.295Z,74.60
2019-03-04T04:05:24.005Z,75.00
2019-03-04T04:07:52.621Z,74.60
2019-03-04T04:10:21.919Z,74.40
2019-03-04T04:12:50.546Z,74.60
2019-03-04T04:15:20.162Z,74.50
2019-03-04T04:17:48.717Z,74.60
2019-03-04T04:20:17.354Z,74.90
2019-03-04T04:22:46.028Z,74.30
2019-03-04T04:25:15.463Z,73.60
2019-03-04T04:27:44.075Z,73.80
2019-03-04T04:30:22.361Z,74.10
2019-03-04T04:32:51.081Z,74.80
2019-03-04T04:35:19.726Z,75.50
2019-03-04T04:37:48.364Z,75.50
2019-03-04T04:40:17.061Z,75.50
2019-03-04T04:42:45.724Z,76.50
2019-03-04T04:45:14.416Z,75.50
2019-03-04T04:47:44.368Z,75.60
2019-03-04T04:50:26.895Z,75.60
2019-03-04T04:52:55.541Z,76.00
2019-03-04T04:55:24.122Z,76.30
2019-03-04T04:57:52.792Z,76.60
2019-03-04T05:00:21.576Z,76.90
2019-03-04T05:02:50.200Z,77.20
2019-03-04T05:05:18.907Z,77.00
2019-03-04T05:07:47.550Z,77.40
2019-03-04T05:10:21.274Z,77.40
2019-03-04T05:12:49.857Z,77.40
2019-03-04T05:15:18.563Z,78.00
2019-03-04T05:17:47.210Z,78.60
2019-03-04T05:20:22.088Z,78.50
2019-03-04T05:22:50.757Z,79.00
2019-03-04T05:25:19.322Z,79.00
2019-03-04T05:27:47.957Z,79.00
2019-03-04T05:30:19.050Z,79.30
2019-03-04T05:32:47.721Z,79.20
2019-03-04T05:35:16.285Z,79.70
2019-03-04T05:37:44.986Z,79.70
2019-03-04T05:40:21.409Z,80.40
2019-03-04T05:42:50.111Z,80.40
2019-03-04T05:45:19.158Z,80.00
2019-03-04T05:47:47.822Z,80.50
2019-03-04T05:50:26.170Z,80.70
2019-03-04T05:52:54.825Z,80.60
2019-03-04T05:55:23.468Z,80.60
2019-03-04T05:57:52.129Z,80.90
2019-03-04T06:00:24.749Z,81.00
2019-03-04T06:02:56.541Z,80.90
2019-03-04T06:05:25.197Z,81.10
2019-03-04T06:08:01.417Z,81.10
2019-03-04T06:10:30.075Z,80.90
2019-03-04T06:12:59.044Z,81.00
2019-03-04T06:15:27.842Z,81.30
2019-03-04T06:17:56.482Z,81.10
2019-03-04T06:20:25.168Z,81.30
2019-03-04T06:22:53.763Z,81.20
2019-03-04T06:25:25.248Z,81.30
2019-03-04T06:27:53.898Z,80.50
2019-03-04T06:30:30.491Z,79.90
2019-03-04T06:32:59.139Z,79.20
2019-03-04T06:35:28.476Z,77.20
2019-03-04T06:37:57.149Z,76.30
2019-03-04T06:40:25.808Z,75.70
2019-03-04T06:42:54.491Z,75.50
2019-03-04T06:45:22.976Z,75.70
2019-03-04T06:47:51.546Z,74.80
2019-03-04T06:50:39.779Z,73.80
2019-03-04T06:53:08.422Z,73.50
2019-03-04T06:56:07.538Z,74.60
2019-03-04T06:59:04.848Z,74.10
2019-03-04T07:01:42.624Z,72.00
2019-03-04T07:04:23.219Z,69.50
2019-03-04T07:06:51.843Z,68.00
2019-03-04T07:09:20.431Z,65.60
2019-03-04T07:11:49.112Z,64.10
2019-03-04T07:14:17.788Z,64.00
2019-03-04T07:16:46.482Z,66.50
2019-03-04T07:19:15.948Z,67.20
2019-03-04T07:21:44.595Z,64.90
2019-03-04T07:24:13.288Z,64.40
2019-03-04T07:26:41.939Z,64.30
2019-03-04T07:29:10.749Z,66.20
2019-03-04T07:31:39.428Z,66.00
2019-03-04T07:34:08.097Z,67.00
2019-03-04T07:36:36.787Z,66.60
2019-03-04T07:39:06.958Z,65.70
2019-03-04T07:41:35.671Z,64.70
2019-03-04T07:44:04.328Z,65.60
2019-03-04T07:46:32.989Z,66.90
2019-03-04T07:49:01.681Z,68.50
2019-03-04T07:51:30.436Z,70.60
2019-03-04T07:53:59.146Z,72.80
2019-03-04T07:56:27.791Z,75.00
2019-03-04T07:58:56.427Z,76.60
2019-03-04T08:01:25.050Z,78.30
2019-03-04T08:03:53.727Z,79.90
2019-03-04T08:06:22.410Z,80.00
2019-03-04T08:09:15.261Z,80.40
2019-03-04T08:12:04.796Z,81.00
2019-03-04T08:14:33.458Z,82.00
2019-03-04T08:17:02.094Z,83.10
2019-03-04T08:19:30.730Z,82.90
2019-03-04T08:21:59.315Z,82.90
2019-03-04T08:24:27.950Z,82.40
2019-03-04T08:26:56.591Z,82.60
2019-03-04T08:29:25.265Z,82.40
2019-03-04T08:31:53.900Z,83.80
2019-03-04T08:34:30.800Z,85.10
2019-03-04T08:36:52.874Z,84.10
2019-03-04T08:39:22.986Z,83.70
2019-03-04T08:41:51.756Z,83.50
2019-03-04T08:44:20.525Z,83.90
2019-03-04T08:46:49.165Z,84.00
2019-03-04T08:49:17.848Z,84.00
2019-03-04T08:52:05.883Z,83.90
2019-03-04T08:54:34.596Z,83.50
2019-03-04T08:57:04.169Z,83.10
2019-03-04T08:59:33.132Z,82.30
2019-03-04T09:02:01.813Z,82.40
2019-03-04T09:04:30.323Z,82.70
2019-03-04T09:06:59.030Z,82.60
2019-03-04T09:09:27.679Z,83.10
2019-03-04T09:11:56.264Z,83.40
2019-03-04T09:14:24.937Z,83.50
2019-03-04T09:16:53.523Z,84.60
2019-03-04T09:19:22.223Z,85.00
2019-03-04T09:21:50.871Z,85.00
2019-03-04T09:24:19.533Z,85.00
2019-03-04T09:26:48.221Z,85.70
2019-03-04T09:29:16.875Z,85.70
2019-03-04T09:31:45.556Z,85.90
2019-03-04T09:34:14.206Z,86.70
2019-03-04T09:36:42.855Z,85.80
2019-03-04T09:39:12.328Z,85.40
2019-03-04T09:41:40.965Z,84.50
2019-03-04T09:44:09.652Z,84.30
2019-03-04T09:46:38.302Z,84.30
2019-03-04T09:49:06.960Z,85.20
2019-03-04T09:51:35.628Z,85.60
2019-03-04T09:54:04.272Z,85.30
2019-03-04T09:56:32.963Z,85.40
2019-03-04T09:59:01.618Z,85.30
2019-03-04T10:01:33.395Z,85.70
2019-03-04T10:04:26.437Z,85.50
2019-03-04T10:07:00.886Z,85.30
2019-03-04T10:09:41.723Z,85.40
2019-03-04T10:12:22.051Z,85.20
2019-03-04T10:15:25.482Z,85.20
2019-03-04T10:18:02.468Z,85.20
2019-03-04T10:20:59.985Z,85.50
2019-03-04T10:23:43.543Z,86.30
2019-03-04T10:26:30.326Z,86.40
2019-03-04T10:29:04.602Z,86.50
2019-03-04T10:31:51.440Z,86.60
2019-03-04T10:34:35.025Z,86.50
2019-03-04T10:37:18.997Z,86.40
2019-03-04T10:40:10.620Z,86.40
2019-03-04T10:43:03.451Z,86.50
2019-03-04T10:45:43.983Z,86.00
2019-03-04T10:48:12.668Z,86.40
2019-03-04T10:50:41.325Z,85.60
2019-03-04T10:53:10.024Z,85.70
2019-03-04T10:55:42.015Z,85.00
2019-03-04T10:58:08.965Z,84.80
2019-03-04T11:00:37.642Z,84.90
2019-03-04T11:03:06.306Z,85.20
2019-03-04T11:05:34.997Z,84.60
2019-03-04T11:08:03.641Z,84.70
2019-03-04T11:10:32.326Z,84.70
2019-03-04T11:13:01.001Z,84.50
2019-03-04T11:15:29.658Z,84.40
2019-03-04T11:17:58.356Z,84.90
2019-03-04T11:20:27.007Z,84.70
2019-03-04T11:22:55.661Z,84.80
2019-03-04T11:25:24.343Z,85.00
2019-03-04T11:27:53.120Z,85.80
2019-03-04T11:30:34.810Z,85.30
2019-03-04T11:33:03.480Z,86.10
2019-03-04T11:35:32.182Z,85.10
2019-03-04T11:38:00.869Z,84.50
2019-03-04T11:40:38.983Z,84.30
2019-03-04T11:43:07.637Z,83.70
2019-03-04T11:45:36.283Z,83.30
2019-03-04T11:48:04.981Z,83.70
2019-03-04T11:50:33.657Z,84.00
2019-03-04T11:53:02.307Z,83.70
2019-03-04T11:55:32.847Z,83.70
2019-03-04T11:58:01.493Z,83.80
2019-03-04T12:00:46.651Z,83.90
2019-03-04T12:03:15.388Z,83.70
2019-03-04T12:05:44.005Z,83.80
2019-03-04T12:08:12.698Z,83.70
2019-03-04T12:10:41.358Z,83.00
2019-03-04T12:13:10.002Z,83.80
2019-03-04T12:15:38.697Z,83.60
2019-03-04T12:18:07.345Z,83.30
2019-03-04T12:20:36.153Z,83.10
2019-03-04T12:23:04.828Z,83.10
2019-03-04T12:25:33.452Z,83.30
2019-03-04T12:28:02.197Z,83.20
2019-03-04T12:30:30.844Z,83.20
2019-03-04T12:32:59.549Z,83.40
2019-03-04T12:35:28.217Z,83.30
2019-03-04T12:37:56.874Z,82.70
2019-03-04T12:40:25.569Z,81.70
2019-03-04T12:42:54.225Z,81.20
2019-03-04T12:45:33.722Z,81.00
2019-03-04T12:47:54.341Z,81.10
2019-03-04T12:50:30.332Z,80.90
2019-03-04T12:52:59.373Z,80.30
2019-03-04T12:55:28.045Z,79.50
2019-03-04T12:57:56.733Z,78.60
2019-03-04T13:00:28.143Z,79.10
2019-03-04T13:02:59.440Z,79.40
2019-03-04T13:05:29.455Z,79.80
2019-03-04T13:07:58.114Z,79.00
2019-03-04T13:10:26.848Z,78.40
2019-03-04T13:12:55.499Z,78.60
2019-03-04T13:15:38.089Z,78.10
2019-03-04T13:18:13.540Z,78.20
2019-03-04T13:20:42.240Z,78.20
2019-03-04T13:23:10.884Z,78.10
2019-03-04T13:25:39.535Z,77.50
2019-03-04T13:28:08.809Z,77.50
2019-03-04T13:30:39.384Z,78.10
2019-03-04T13:33:08.078Z,77.50
2019-03-04T13:35:41.025Z,77.10
2019-03-04T13:38:09.698Z,77.40
2019-03-04T13:40:38.381Z,77.40
2019-03-04T13:43:07.024Z,77.30
2019-03-04T13:45:35.819Z,77.20
2019-03-04T13:48:04.472Z,77.00
2019-03-04T13:50:37.342Z,77.20
2019-03-04T13:53:06.008Z,77.30
2019-03-04T13:55:34.677Z,77.30
2019-03-04T13:58:03.381Z,77.90
2019-03-04T14:00:40.168Z,77.30
2019-03-04T14:03:10.437Z,78.20
2019-03-04T14:05:39.100Z,77.10
2019-03-04T14:08:07.754Z,76.50
2019-03-04T14:10:41.780Z,76.40
2019-03-04T14:13:11.989Z,76.60
2019-03-04T14:15:48.670Z,76.40
2019-03-04T14:18:17.333Z,76.50
2019-03-04T14:20:45.994Z,76.10
2019-03-04T14:23:14.608Z,76.50
2019-03-04T14:25:43.312Z,76.80
2019-03-04T14:28:11.976Z,76.60
2019-03-04T14:30:40.631Z,76.70
2019-03-04T14:33:09.301Z,76.80
2019-03-04T14:35:38.016Z,77.00
2019-03-04T14:38:06.661Z,77.40
2019-03-04T14:40:35.321Z,77.70
2019-03-04T14:43:04.024Z,77.70
2019-03-04T14:45:32.679Z,77.80
2019-03-04T14:48:01.380Z,77.50
2019-03-04T14:50:30.048Z,78.00
2019-03-04T14:52:58.667Z,78.10
2019-03-04T14:55:40.914Z,78.00
2019-03-04T14:58:09.589Z,78.50
2019-03-04T15:00:40.657Z,78.50
2019-03-04T15:03:19.091Z,78.30
2019-03-04T15:05:39.561Z,78.10
2019-03-04T15:08:08.217Z,78.40
2019-03-04T15:10:36.880Z,78.30
2019-03-04T15:13:05.567Z,78.20
2019-03-04T15:15:35.424Z,78.30
2019-03-04T15:18:04.145Z,78.10
2019-03-04T15:20:33.724Z,78.30
2019-03-04T15:23:02.360Z,78.30
2019-03-04T15:25:41.937Z,78.40
2019-03-04T15:28:21.377Z,78.40
2019-03-04T15:31:00.437Z,78.40
2019-03-04T15:33:29.096Z,78.50
2019-03-04T15:35:57.750Z,78.60
2019-03-04T15:38:26.450Z,78.30
2019-03-04T15:40:55.088Z,77.70
2019-03-04T15:43:23.804Z,77.60
2019-03-04T15:45:54.021Z,77.70
2019-03-04T15:48:25.589Z,78.00
2019-03-04T15:50:55.741Z,78.00
2019-03-04T15:53:24.528Z,78.00
2019-03-04T15:55:53.264Z,77.50
2019-03-04T15:58:21.911Z,77.40
2019-03-04T16:00:50.569Z,77.40
2019-03-04T16:03:19.554Z,77.30
2019-03-04T16:05:48.216Z,77.20
2019-03-04T16:08:16.924Z,76.40
2019-03-04T16:10:45.579Z,75.90
2019-03-04T16:13:14.242Z,76.10
2019-03-04T16:15:45.428Z,76.00
2019-03-04T16:18:14.092Z,75.80
2019-03-04T16:20:42.819Z,75.90
2019-03-04T16:23:11.485Z,75.80
2019-03-04T16:25:40.152Z,76.30
2019-03-04T16:28:14.709Z,76.90
2019-03-04T16:30:43.962Z,77.50
2019-03-04T16:33:12.653Z,78.00
2019-03-04T16:35:41.308Z,77.80
2019-03-04T16:38:09.955Z,78.40
2019-03-04T16:40:38.651Z,79.10
2019-03-04T16:43:07.312Z,80.20
2019-03-04T16:45:35.994Z,81.20
2019-03-04T16:48:04.671Z,81.00
2019-03-04T16:50:42.175Z,81.70
2019-03-04T16:53:13.957Z,81.30
2019-03-04T16:55:43.589Z,81.20
2019-03-04T16:58:12.289Z,81.60
2019-03-04T17:00:40.937Z,81.30
2019-03-04T17:03:09.639Z,81.50
2019-03-04T17:05:38.283Z,81.40
2019-03-04T17:08:06.953Z,79.70
2019-03-04T17:10:35.641Z,79.30
2019-03-04T17:13:04.294Z,81.30
2019-03-04T17:15:33.011Z,83.80
2019-03-04T17:18:01.677Z,84.20
2019-03-04T17:20:30.322Z,85.60
2019-03-04T17:22:59.020Z,87.00
2019-03-04T17:25:27.671Z,88.60
2019-03-04T17:27:57.451Z,89.00
2019-03-04T17:30:27.410Z,89.60
2019-03-04T17:32:56.067Z,90.20
2019-03-04T17:35:25.164Z,90.30
2019-03-04T17:37:53.805Z,90.10
2019-03-04T17:40:27.412Z,88.10
2019-03-04T17:42:56.070Z,87.50
2019-03-04T17:45:26.021Z,87.80
2019-03-04T17:47:54.719Z,87.70
2019-03-04T17:50:32.267Z,87.00
2019-03-04T17:53:00.951Z,85.70
2019-03-04T17:55:29.618Z,85.10
2019-03-04T17:57:58.318Z,85.70
2019-03-04T18:00:27.068Z,85.00
2019-03-04T18:02:55.721Z,85.30
2019-03-04T18:05:24.407Z,86.10
2019-03-04T18:07:53.055Z,86.00
2019-03-04T18:10:21.762Z,86.40
2019-03-04T18:12:50.598Z,86.20
2019-03-04T18:15:39.698Z,86.40
2019-03-04T18:18:08.393Z,86.80
2019-03-04T18:20:37.083Z,86.60
2019-03-04T18:23:05.720Z,86.00
2019-03-04T18:25:52.581Z,85.70
2019-03-04T18:28:40.753Z,87.60
2019-03-04T18:31:12.599Z,89.40
2019-03-04T18:33:50.432Z,90.40
2019-03-04T18:36:38.741Z,90.50
2019-03-04T18:39:13.473Z,90.70
2019-03-04T18:41:48.069Z,90.60
2019-03-04T18:44:25.577Z,90.00
2019-03-04T18:47:00.020Z,90.00
2019-03-04T18:49:28.672Z,89.80
2019-03-04T18:51:57.379Z,90.00
2019-03-04T18:54:26.050Z,90.20
2019-03-04T18:56:54.711Z,90.50
2019-03-04T18:59:23.425Z,90.90
2019-03-04T19:01:52.093Z,90.80
2019-03-04T19:04:20.731Z,90.70
2019-03-04T19:06:49.427Z,91.00
2019-03-04T19:09:18.083Z,91.10
2019-03-04T19:11:46.802Z,91.30
2019-03-04T19:14:15.447Z,90.80
2019-03-04T19:16:44.104Z,90.10
2019-03-04T19:19:12.790Z,90.20
2019-03-04T19:21:41.430Z,90.10
2019-03-04T19:24:10.121Z,90.30
2019-03-04T19:26:38.792Z,90.50
2019-03-04T19:29:07.443Z,90.70
2019-03-04T19:31:36.122Z,90.80
2019-03-04T19:34:04.791Z,90.60
2019-03-04T19:36:33.496Z,91.00
2019-03-04T19:39:02.151Z,91.10
2019-03-04T19:41:30.794Z,91.00
2019-03-04T19:43:59.475Z,91.20
2019-03-04T19:46:28.130Z,91.50
2019-03-04T19:48:56.818Z,91.50
2019-03-04T19:51:25.467Z,91.30
2019-03-04T19:53:54.152Z,91.20
2019-03-04T19:56:22.835Z,91.20
2019-03-04T19:58:51.489Z,91.20
2019-03-04T20:01:20.190Z,91.10
2019-03-04T20:03:48.850Z,90.90
2019-03-04T20:06:17.536Z,91.00
2019-03-04T20:08:46.179Z,91.20
2019-03-04T20:11:14.871Z,91.20
2019-03-04T20:13:43.565Z,91.50
2019-03-04T20:16:12.197Z,91.50
2019-03-04T20:18:40.903Z,91.70
2019-03-04T20:21:09.553Z,91.50
2019-03-04T20:23:38.234Z,91.50
2019-03-04T20:26:06.932Z,91.20
2019-03-04T20:28:35.590Z,91.20
2019-03-04T20:31:04.253Z,91.30
2019-03-04T20:33:32.917Z,91.40
2019-03-04T20:36:01.621Z,91.50
2019-03-04T20:38:39.557Z,91.50
2019-03-04T20:41:08.255Z,91.50
2019-03-04T20:43:36.931Z,91.70
2019-03-04T20:46:05.571Z,92.00
2019-03-04T20:48:34.259Z,92.00
2019-03-04T20:51:02.916Z,91.80
2019-03-04T20:53:31.603Z,91.80
2019-03-04T20:56:00.684Z,91.70
2019-03-04T20:58:29.656Z,91.90
2019-03-04T21:00:58.344Z,92.20
2019-03-04T21:03:34.540Z,92.20
2019-03-04T21:05:57.338Z,92.10
2019-03-04T21:08:26.019Z,92.20
2019-03-04T21:10:54.595Z,92.00
2019-03-04T21:13:35.270Z,91.90
2019-03-04T21:15:56.644Z,92.30
2019-03-04T21:18:25.332Z,92.00
2019-03-04T21:20:54.002Z,92.30
2019-03-04T21:23:22.649Z,92.50
2019-03-04T21:25:57.585Z,92.60
2019-03-04T21:28:32.021Z,92.90
2019-03-04T21:31:15.839Z,93.00
2019-03-04T21:34:07.164Z,93.10
2019-03-04T21:36:59.597Z,92.90
2019-03-04T21:39:36.650Z,92.70
2019-03-04T21:42:23.626Z,92.80
2019-03-04T21:45:01.355Z,92.70
2019-03-04T21:47:39.192Z,92.60
2019-03-04T21:50:11.210Z,92.40
2019-03-04T21:52:43.269Z,92.30
2019-03-04T21:55:15.737Z,92.30
2019-03-04T21:57:47.329Z,92.50
2019-03-04T22:00:19.136Z,93.10
2019-03-04T22:02:57.045Z,92.80
2019-03-04T22:05:25.691Z,92.80
2019-03-04T22:07:54.357Z,92.60
2019-03-04T22:10:23.049Z,92.30
2019-03-04T22:12:51.708Z,92.00
2019-03-04T22:15:20.407Z,91.60
2019-03-04T22:17:49.065Z,91.50
2019-03-04T22:20:17.696Z,91.40
2019-03-04T22:22:46.372Z,91.10
2019-03-04T22:25:15.029Z,91.10
2019-03-04T22:27:43.710Z,91.10
2019-03-04T22:30:19.279Z,91.10
2019-03-04T22:32:47.957Z,91.20
2019-03-04T22:35:17.461Z,91.30
2019-03-04T22:37:46.569Z,91.40
2019-03-04T22:40:20.449Z,91.40
2019-03-04T22:42:49.117Z,91.20
2019-03-04T22:45:19.635Z,91.20
2019-03-04T22:47:49.937Z,91.20
2019-03-04T22:50:22.566Z,91.20
2019-03-04T22:52:51.281Z,91.20
2019-03-04T22:55:23.052Z,91.50
2019-03-04T22:57:51.697Z,91.40
2019-03-04T23:00:53.644Z,91.50
2019-03-04T23:03:29.941Z,91.50
2019-03-04T23:06:19.599Z,91.50
2019-03-04T23:08:48.282Z,91.50
2019-03-04T23:11:17.418Z,91.50
2019-03-04T23:13:55.232Z,91.50
2019-03-04T23:16:32.015Z,91.70
2019-03-04T23:19:00.709Z,91.40
2019-03-04T23:21:29.350Z,91.40
2019-03-04T23:23:58.013Z,91.60
2019-03-04T23:26:26.692Z,91.70
2019-03-04T23:28:55.360Z,91.70
2019-03-04T23:31:24.045Z,91.70
2019-03-04T23:33:52.679Z,91.60
2019-03-04T23:36:21.323Z,91.70
2019-03-04T23:38:50.024Z,91.60
2019-03-04T23:41:18.661Z,91.50
2019-03-04T23:43:47.297Z,91.80
2019-03-04T23:46:15.996Z,92.10
2019-03-04T23:48:44.653Z,92.20
2019-03-04T23:51:13.308Z,92.40
2019-03-04T23:53:41.979Z,92.80
2019-03-04T23:56:10.641Z,92.50
2019-03-04T23:58:39.336Z,92.50
